sensor_id;sensor_type;location;lat;lon;timestamp;pressure;altitude;pressure_sealevel;temperature;humidity
69245;BME280;56357;52.304;4.870;2023-03-25T00:01:38;100220.13;;;19.19;51.63
69245;BME280;56357;52.304;4.870;2023-03-25T00:04:04;100225.75;;;19.19;51.80
69245;BME280;56357;52.304;4.870;2023-03-25T00:06:31;100229.38;;;19.19;51.44
69245;BME280;56357;52.304;4.870;2023-03-25T00:08:59;100219.88;;;19.15;52.01
69245;BME280;56357;52.304;4.870;2023-03-25T00:11:26;100217.69;;;19.12;51.96
69245;BME280;56357;52.304;4.870;2023-03-25T00:13:53;100222.69;;;19.15;51.75
69245;BME280;56357;52.304;4.870;2023-03-25T00:16:20;100222.41;;;19.17;52.03
69245;BME280;56357;52.304;4.870;2023-03-25T00:18:46;100228.59;;;19.14;52.01
69245;BME280;56357;52.304;4.870;2023-03-25T00:21:14;100224.97;;;19.13;51.86
69245;BME280;56357;52.304;4.870;2023-03-25T00:23:40;100221.94;;;19.10;51.68
69245;BME280;56357;52.304;4.870;2023-03-25T00:26:07;100221.94;;;19.10;51.69
69245;BME280;56357;52.304;4.870;2023-03-25T00:28:36;100234.53;;;19.12;52.15
69245;BME280;56357;52.304;4.870;2023-03-25T00:31:07;100224.97;;;19.13;51.67
69245;BME280;56357;52.304;4.870;2023-03-25T00:33:34;100221.94;;;19.10;52.25
69245;BME280;56357;52.304;4.870;2023-03-25T00:36:01;100217.78;;;19.07;52.06
69245;BME280;56357;52.304;4.870;2023-03-25T00:38:30;100224.19;;;19.08;52.11
69245;BME280;56357;52.304;4.870;2023-03-25T00:43:38;100218.13;;;19.01;52.14
69245;BME280;56357;52.304;4.870;2023-03-25T00:46:04;100215.25;;;19.06;51.82
69245;BME280;56357;52.304;4.870;2023-03-25T00:48:31;100218.06;;;19.06;52.12
69245;BME280;56357;52.304;4.870;2023-03-25T00:50:57;100209.72;;;19.01;52.19
69245;BME280;56357;52.304;4.870;2023-03-25T00:53:23;100219.78;;;19.02;52.20
69245;BME280;56357;52.304;4.870;2023-03-25T00:55:50;100209.19;;;18.99;52.08
69245;BME280;56357;52.304;4.870;2023-03-25T00:58:16;100221.25;;;18.99;51.78
69245;BME280;56357;52.304;4.870;2023-03-25T01:00:43;100208.66;;;18.97;52.03
69245;BME280;56357;52.304;4.870;2023-03-25T01:03:09;100204.94;;;19.01;52.10
69245;BME280;56357;52.304;4.870;2023-03-25T01:05:36;100205.00;;;18.96;52.00
69245;BME280;56357;52.304;4.870;2023-03-25T01:08:06;100200.22;;;18.97;52.02
69245;BME280;56357;52.304;4.870;2023-03-25T01:10:35;100205.00;;;18.96;52.23
69245;BME280;56357;52.304;4.870;2023-03-25T01:13:01;100214.03;;;18.93;52.18
69245;BME280;56357;52.304;4.870;2023-03-25T01:15:28;100207.91;;;18.91;51.95
69245;BME280;56357;52.304;4.870;2023-03-25T01:17:54;100208.44;;;18.93;52.29
69245;BME280;56357;52.304;4.870;2023-03-25T01:20:21;100198.09;;;18.89;51.82
69245;BME280;56357;52.304;4.870;2023-03-25T01:22:47;100210.69;;;18.91;52.02
69245;BME280;56357;52.304;4.870;2023-03-25T01:25:14;100201.44;;;18.91;52.36
69245;BME280;56357;52.304;4.870;2023-03-25T01:27:40;100214.09;;;18.88;51.88
69245;BME280;56357;52.304;4.870;2023-03-25T01:30:07;100216.63;;;18.90;52.06
69245;BME280;56357;52.304;4.870;2023-03-25T01:32:33;100202.88;;;18.88;52.09
69245;BME280;56357;52.304;4.870;2023-03-25T01:35:00;100205.16;;;18.86;52.11
69245;BME280;56357;52.304;4.870;2023-03-25T01:37:28;100220.53;;;18.89;51.95
69245;BME280;56357;52.304;4.870;2023-03-25T01:39:58;100208.25;;;18.85;52.12
69245;BME280;56357;52.304;4.870;2023-03-25T01:42:24;100197.03;;;18.85;52.25
69245;BME280;56357;52.304;4.870;2023-03-25T01:47:17;100194.53;;;18.83;52.19
69245;BME280;56357;52.304;4.870;2023-03-25T01:49:45;100190.88;;;18.83;52.21
69245;BME280;56357;52.304;4.870;2023-03-25T01:52:13;100194.00;;;18.81;52.49
69245;BME280;56357;52.304;4.870;2023-03-25T01:54:43;100192.03;;;18.82;52.13
69245;BME280;56357;52.304;4.870;2023-03-25T01:57:13;100196.50;;;18.83;52.11
69245;BME280;56357;52.304;4.870;2023-03-25T01:59:41;100191.19;;;18.81;51.99
69245;BME280;56357;52.304;4.870;2023-03-25T02:02:09;100187.63;;;18.76;52.33
69245;BME280;56357;52.304;4.870;2023-03-25T02:04:42;100187.00;;;18.79;51.99
69245;BME280;56357;52.304;4.870;2023-03-25T02:07:16;100180.28;;;18.80;52.09
69245;BME280;56357;52.304;4.870;2023-03-25T02:09:44;100193.22;;;18.76;52.33
69245;BME280;56357;52.304;4.870;2023-03-25T02:12:10;100194.91;;;18.77;52.22
69245;BME280;56357;52.304;4.870;2023-03-25T02:14:37;100183.16;;;18.75;52.26
69245;BME280;56357;52.304;4.870;2023-03-25T02:29:01;100184.59;;;18.72;52.29
69245;BME280;56357;52.304;4.870;2023-03-25T02:37:33;100193.38;;;18.66;52.11
69245;BME280;56357;52.304;4.870;2023-03-25T02:40:07;100193.91;;;18.68;52.33
69245;BME280;56357;52.304;4.870;2023-03-25T02:42:51;100178.22;;;18.67;52.00
69245;BME280;56357;52.304;4.870;2023-03-25T02:45:26;100174.81;;;18.70;52.25
69245;BME280;56357;52.304;4.870;2023-03-25T02:47:58;100177.38;;;18.66;52.00
69245;BME280;56357;52.304;4.870;2023-03-25T02:50:36;100163.97;;;18.63;52.24
69245;BME280;56357;52.304;4.870;2023-03-25T02:53:05;100172.91;;;18.65;52.32
69245;BME280;56357;52.304;4.870;2023-03-25T02:55:36;100166.78;;;18.63;52.14
69245;BME280;56357;52.304;4.870;2023-03-25T02:58:07;100163.13;;;18.63;52.28
69245;BME280;56357;52.304;4.870;2023-03-25T03:00:36;100170.47;;;18.59;52.37
69245;BME280;56357;52.304;4.870;2023-03-25T03:03:05;100166.81;;;18.58;52.53
69245;BME280;56357;52.304;4.870;2023-03-25T03:05:37;100161.53;;;18.57;52.46
69245;BME280;56357;52.304;4.870;2023-03-25T03:08:18;100162.38;;;18.57;52.05
69245;BME280;56357;52.304;4.870;2023-03-25T03:13:35;100152.03;;;18.53;52.48
69245;BME280;56357;52.304;4.870;2023-03-25T03:22:10;100161.28;;;18.53;52.12
69245;BME280;56357;52.304;4.870;2023-03-25T03:24:40;100153.72;;;18.54;52.22
69245;BME280;56357;52.304;4.870;2023-03-25T03:27:28;100154.00;;;18.52;52.37
69245;BME280;56357;52.304;4.870;2023-03-25T03:33:04;100152.13;;;18.48;52.28
69245;BME280;56357;52.304;4.870;2023-03-25T03:35:36;100149.84;;;18.50;52.43
69245;BME280;56357;52.304;4.870;2023-03-25T03:38:11;100153.47;;;18.50;52.40
69245;BME280;56357;52.304;4.870;2023-03-25T03:40:40;100152.13;;;18.48;52.11
69245;BME280;56357;52.304;4.870;2023-03-25T03:43:17;100152.13;;;18.48;52.32
69245;BME280;56357;52.304;4.870;2023-03-25T03:45:47;100148.78;;;18.46;52.06
69245;BME280;56357;52.304;4.870;2023-03-25T03:48:23;100160.28;;;18.44;52.39
69245;BME280;56357;52.304;4.870;2023-03-25T03:51:05;100152.44;;;18.41;52.38
69245;BME280;56357;52.304;4.870;2023-03-25T03:53:41;100153.59;;;18.40;52.70
69245;BME280;56357;52.304;4.870;2023-03-25T03:56:14;100144.03;;;18.41;52.11
69245;BME280;56357;52.304;4.870;2023-03-25T03:58:49;100158.88;;;18.42;52.40
69245;BME280;56357;52.304;4.870;2023-03-25T04:01:29;100160.84;;;18.41;52.60
69245;BME280;56357;52.304;4.870;2023-03-25T04:04:01;100163.38;;;18.43;52.41
69245;BME280;56357;52.304;4.870;2023-03-25T04:06:34;100153.28;;;18.42;52.33
69245;BME280;56357;52.304;4.870;2023-03-25T04:12:07;100148.25;;;18.44;52.49
69245;BME280;56357;52.304;4.870;2023-03-25T04:14:36;100150.72;;;18.45;52.33
69245;BME280;56357;52.304;4.870;2023-03-25T04:17:05;100156.66;;;18.44;52.61
69245;BME280;56357;52.304;4.870;2023-03-25T04:19:31;100153.84;;;18.44;52.70
69245;BME280;56357;52.304;4.870;2023-03-25T04:21:59;100145.97;;;18.46;52.57
69245;BME280;56357;52.304;4.870;2023-03-25T04:24:26;100159.47;;;18.44;52.54
69245;BME280;56357;52.304;4.870;2023-03-25T04:26:56;100161.94;;;18.45;52.43
69245;BME280;56357;52.304;4.870;2023-03-25T04:29:24;100157.50;;;18.44;52.40
69245;BME280;56357;52.304;4.870;2023-03-25T04:31:50;100158.00;;;18.46;52.48
69245;BME280;56357;52.304;4.870;2023-03-25T04:34:20;100157.19;;;18.46;52.43
69245;BME280;56357;52.304;4.870;2023-03-25T04:36:48;100163.91;;;18.45;52.31
69245;BME280;56357;52.304;4.870;2023-03-25T04:39:15;100162.78;;;18.46;52.65
69245;BME280;56357;52.304;4.870;2023-03-25T04:41:43;100175.66;;;18.47;52.50
69245;BME280;56357;52.304;4.870;2023-03-25T04:44:09;100161.66;;;18.47;52.67
69245;BME280;56357;52.304;4.870;2023-03-25T04:46:37;100162.50;;;18.47;52.57
69245;BME280;56357;52.304;4.870;2023-03-25T04:49:04;100163.31;;;18.48;52.57
69245;BME280;56357;52.304;4.870;2023-03-25T04:51:38;100149.00;;;18.49;52.71
69245;BME280;56357;52.304;4.870;2023-03-25T04:54:08;100152.13;;;18.48;53.19
69245;BME280;56357;52.304;4.870;2023-03-25T04:56:35;100154.38;;;18.46;52.76
69245;BME280;56357;52.304;4.870;2023-03-25T04:59:02;100163.31;;;18.48;52.86
69245;BME280;56357;52.304;4.870;2023-03-25T05:01:29;100152.94;;;18.48;52.71
69245;BME280;56357;52.304;4.870;2023-03-25T05:04:00;100164.41;;;18.52;52.81
69245;BME280;56357;52.304;4.870;2023-03-25T05:06:38;100154.63;;;18.49;52.70
69245;BME280;56357;52.304;4.870;2023-03-25T05:09:07;100157.72;;;18.48;52.96
69245;BME280;56357;52.304;4.870;2023-03-25T05:11:35;100153.78;;;18.49;52.85
69245;BME280;56357;52.304;4.870;2023-03-25T05:14:03;100168.41;;;18.46;53.05
69245;BME280;56357;52.304;4.870;2023-03-25T05:16:31;100168.63;;;18.49;52.72
69245;BME280;56357;52.304;4.870;2023-03-25T05:18:57;100161.66;;;18.47;52.94
69245;BME280;56357;52.304;4.870;2023-03-25T05:21:24;100170.00;;;18.52;53.36
69245;BME280;56357;52.304;4.870;2023-03-25T05:23:50;100182.41;;;18.46;53.71
69245;BME280;56357;52.304;4.870;2023-03-25T05:26:17;100179.31;;;18.47;53.73
69245;BME280;56357;52.304;4.870;2023-03-25T05:28:44;100196.13;;;18.47;53.89
69245;BME280;56357;52.304;4.870;2023-03-25T05:31:15;100177.81;;;18.55;53.92
69245;BME280;56357;52.304;4.870;2023-03-25T05:33:41;100179.91;;;18.44;53.95
69245;BME280;56357;52.304;4.870;2023-03-25T05:36:09;100184.91;;;18.47;54.15
69245;BME280;56357;52.304;4.870;2023-03-25T05:38:36;100191.59;;;18.51;53.72
69245;BME280;56357;52.304;4.870;2023-03-25T05:41:06;100192.38;;;18.57;53.89
69245;BME280;56357;52.304;4.870;2023-03-25T05:43:35;100193.22;;;18.57;53.67
69245;BME280;56357;52.304;4.870;2023-03-25T05:46:02;100192.13;;;18.53;53.90
69245;BME280;56357;52.304;4.870;2023-03-25T05:48:30;100203.34;;;18.53;54.19
69245;BME280;56357;52.304;4.870;2023-03-25T05:51:00;100201.97;;;18.51;53.81
69245;BME280;56357;52.304;4.870;2023-03-25T05:53:28;100199.47;;;18.49;54.46
69245;BME280;56357;52.304;4.870;2023-03-25T05:55:57;100198.06;;;18.52;54.24
69245;BME280;56357;52.304;4.870;2023-03-25T05:58:24;100201.41;;;18.54;53.76
69245;BME280;56357;52.304;4.870;2023-03-25T06:00:50;100206.38;;;18.57;54.22
69245;BME280;56357;52.304;4.870;2023-03-25T06:03:18;100201.00;;;18.60;53.89
69245;BME280;56357;52.304;4.870;2023-03-25T06:05:46;100203.03;;;18.55;53.99
69245;BME280;56357;52.304;4.870;2023-03-25T06:08:12;100212.41;;;18.45;54.24
69245;BME280;56357;52.304;4.870;2023-03-25T06:10:39;100212.84;;;18.57;53.73
69245;BME280;56357;52.304;4.870;2023-03-25T06:13:05;100216.00;;;18.51;53.87
69245;BME280;56357;52.304;4.870;2023-03-25T06:15:32;100214.25;;;18.55;53.96
69245;BME280;56357;52.304;4.870;2023-03-25T06:18:03;100216.94;;;18.65;54.01
69245;BME280;56357;52.304;4.870;2023-03-25T06:20:29;100220.94;;;18.59;54.26
69245;BME280;56357;52.304;4.870;2023-03-25T06:22:57;100225.28;;;18.70;54.15
69245;BME280;56357;52.304;4.870;2023-03-25T06:25:24;100221.09;;;18.67;54.39
69245;BME280;56357;52.304;4.870;2023-03-25T06:27:50;100218.69;;;18.61;54.53
69245;BME280;56357;52.304;4.870;2023-03-25T06:30:20;100212.66;;;18.72;54.50
69245;BME280;56357;52.304;4.870;2023-03-25T06:32:47;100211.03;;;18.66;54.82
69245;BME280;56357;52.304;4.870;2023-03-25T06:35:15;100220.22;;;18.72;54.81
69245;BME280;56357;52.304;4.870;2023-03-25T06:37:44;100219.13;;;18.68;54.84
69245;BME280;56357;52.304;4.870;2023-03-25T06:40:12;100228.31;;;18.73;54.42
69245;BME280;56357;52.304;4.870;2023-03-25T06:42:39;100224.75;;;18.68;52.43
69245;BME280;56357;52.304;4.870;2023-03-25T06:45:07;100220.41;;;18.57;52.77
69245;BME280;56357;52.304;4.870;2023-03-25T06:47:34;100233.53;;;18.61;52.82
69245;BME280;56357;52.304;4.870;2023-03-25T06:50:00;100229.53;;;18.67;52.95
69245;BME280;56357;52.304;4.870;2023-03-25T06:52:27;100217.53;;;18.62;53.32
69245;BME280;56357;52.304;4.870;2023-03-25T06:54:53;100223.88;;;18.49;53.76
69245;BME280;56357;52.304;4.870;2023-03-25T06:57:19;100223.75;;;18.59;53.28
69245;BME280;56357;52.304;4.870;2023-03-25T06:59:46;100234.53;;;18.70;52.82
69245;BME280;56357;52.304;4.870;2023-03-25T07:02:13;100226.97;;;18.71;53.28
69245;BME280;56357;52.304;4.870;2023-03-25T07:04:40;100237.00;;;18.77;53.30
69245;BME280;56357;52.304;4.870;2023-03-25T07:07:07;100235.94;;;18.73;53.35
69245;BME280;56357;52.304;4.870;2023-03-25T07:09:34;100231.13;;;18.73;53.47
69245;BME280;56357;52.304;4.870;2023-03-25T07:12:00;100228.94;;;18.70;53.82
69245;BME280;56357;52.304;4.870;2023-03-25T07:14:27;100247.06;;;18.78;53.83
69245;BME280;56357;52.304;4.870;2023-03-25T07:16:53;100232.19;;;18.77;53.78
69245;BME280;56357;52.304;4.870;2023-03-25T07:19:20;100241.28;;;18.69;54.15
69245;BME280;56357;52.304;4.870;2023-03-25T07:21:46;100232.28;;;18.72;54.13
69245;BME280;56357;52.304;4.870;2023-03-25T07:24:13;100230.25;;;18.78;54.00
69245;BME280;56357;52.304;4.870;2023-03-25T07:26:40;100241.00;;;18.71;53.95
69245;BME280;56357;52.304;4.870;2023-03-25T07:29:06;100242.31;;;18.78;54.14
69245;BME280;56357;52.304;4.870;2023-03-25T07:31:33;100226.97;;;18.71;54.02
69245;BME280;56357;52.304;4.870;2023-03-25T07:33:59;100244.25;;;18.78;53.90
69245;BME280;56357;52.304;4.870;2023-03-25T07:36:27;100241.00;;;18.71;54.04
69245;BME280;56357;52.304;4.870;2023-03-25T07:38:53;100247.06;;;18.78;53.85
69245;BME280;56357;52.304;4.870;2023-03-25T07:41:19;100240.63;;;18.77;54.26
69245;BME280;56357;52.304;4.870;2023-03-25T07:43:46;100246.72;;;18.84;54.44
69245;BME280;56357;52.304;4.870;2023-03-25T07:46:12;100248.38;;;18.85;54.25
69245;BME280;56357;52.304;4.870;2023-03-25T07:48:39;100252.47;;;18.93;53.91
69245;BME280;56357;52.304;4.870;2023-03-25T07:51:06;100245.97;;;18.97;54.20
69245;BME280;56357;52.304;4.870;2023-03-25T07:53:34;100254.41;;;18.97;54.21
69245;BME280;56357;52.304;4.870;2023-03-25T07:56:03;100247.94;;;18.97;54.52
69245;BME280;56357;52.304;4.870;2023-03-25T07:58:30;100238.97;;;18.95;54.49
69245;BME280;56357;52.304;4.870;2023-03-25T08:00:56;100256.44;;;18.92;54.49
69245;BME280;56357;52.304;4.870;2023-03-25T08:03:23;100266.19;;;18.94;54.13
69245;BME280;56357;52.304;4.870;2023-03-25T08:05:49;100247.75;;;18.88;54.71
69245;BME280;56357;52.304;4.870;2023-03-25T08:08:16;100262.94;;;18.87;54.58
69245;BME280;56357;52.304;4.870;2023-03-25T08:10:43;100256.25;;;18.83;55.41
69245;BME280;56357;52.304;4.870;2023-03-25T08:13:11;100267.34;;;18.93;55.94
69245;BME280;56357;52.304;4.870;2023-03-25T08:15:39;100255.06;;;19.08;54.54
69245;BME280;56357;52.304;4.870;2023-03-25T08:18:05;100266.16;;;19.18;55.02
69245;BME280;56357;52.304;4.870;2023-03-25T08:20:33;100271.78;;;19.18;55.18
69245;BME280;56357;52.304;4.870;2023-03-25T08:23:00;100264.41;;;19.46;56.23
69245;BME280;56357;52.304;4.870;2023-03-25T08:25:27;100288.59;;;19.60;56.46
69245;BME280;56357;52.304;4.870;2023-03-25T08:27:54;100268.81;;;19.52;56.03
69245;BME280;56357;52.304;4.870;2023-03-25T08:30:21;100276.28;;;19.19;55.81
69245;BME280;56357;52.304;4.870;2023-03-25T08:32:48;100280.75;;;19.20;55.34
69245;BME280;56357;52.304;4.870;2023-03-25T08:35:19;100272.41;;;19.15;55.41
69245;BME280;56357;52.304;4.870;2023-03-25T08:37:47;100281.25;;;19.03;54.94
69245;BME280;56357;52.304;4.870;2023-03-25T08:40:14;100283.03;;;18.94;55.51
69245;BME280;56357;52.304;4.870;2023-03-25T08:42:42;100298.19;;;19.17;55.52
69245;BME280;56357;52.304;4.870;2023-03-25T08:45:09;100288.97;;;19.35;56.66
69245;BME280;56357;52.304;4.870;2023-03-25T08:47:36;100282.13;;;19.60;55.05
69245;BME280;56357;52.304;4.870;2023-03-25T08:50:03;100287.75;;;19.60;55.42
69245;BME280;56357;52.304;4.870;2023-03-25T08:52:30;100274.91;;;19.54;55.50
69245;BME280;56357;52.304;4.870;2023-03-25T08:54:56;100283.75;;;19.47;55.61
69245;BME280;56357;52.304;4.870;2023-03-25T08:57:23;100274.25;;;19.62;56.09
69245;BME280;56357;52.304;4.870;2023-03-25T08:59:50;100295.81;;;19.66;55.74
69245;BME280;56357;52.304;4.870;2023-03-25T09:02:16;100297.94;;;19.56;55.12
69245;BME280;56357;52.304;4.870;2023-03-25T09:04:43;100283.50;;;19.62;55.56
69245;BME280;56357;52.304;4.870;2023-03-25T09:07:10;100282.91;;;19.47;55.08
69245;BME280;56357;52.304;4.870;2023-03-25T09:09:36;100294.00;;;19.38;55.66
69245;BME280;56357;52.304;4.870;2023-03-25T09:12:04;100285.63;;;19.33;55.32
69245;BME280;56357;52.304;4.870;2023-03-25T09:14:31;100278.91;;;19.34;53.81
69245;BME280;56357;52.304;4.870;2023-03-25T09:16:58;100284.31;;;19.26;52.52
69245;BME280;56357;52.304;4.870;2023-03-25T09:19:24;100293.56;;;19.26;53.08
69245;BME280;56357;52.304;4.870;2023-03-25T09:21:51;100286.78;;;19.32;53.45
69245;BME280;56357;52.304;4.870;2023-03-25T09:24:17;100293.78;;;19.30;53.62
69245;BME280;56357;52.304;4.870;2023-03-25T09:26:46;100304.63;;;19.41;53.18
69245;BME280;56357;52.304;4.870;2023-03-25T09:29:13;100298.91;;;19.46;53.56
69245;BME280;56357;52.304;4.870;2023-03-25T09:31:39;100308.03;;;19.38;54.32
69245;BME280;56357;52.304;4.870;2023-03-25T09:34:06;100298.47;;;19.39;53.71
69245;BME280;56357;52.304;4.870;2023-03-25T09:36:32;100310.91;;;19.33;53.84
69245;BME280;56357;52.304;4.870;2023-03-25T09:38:59;100309.25;;;19.32;53.64
69245;BME280;56357;52.304;4.870;2023-03-25T09:44:19;100299.09;;;19.36;53.22
69245;BME280;56357;52.304;4.870;2023-03-25T09:46:47;100295.66;;;19.39;53.08
69245;BME280;56357;52.304;4.870;2023-03-25T09:49:19;100318.97;;;19.40;53.19
69245;BME280;56357;52.304;4.870;2023-03-25T09:51:49;100321.28;;;19.33;52.99
69245;BME280;56357;52.304;4.870;2023-03-25T09:54:30;100326.84;;;19.38;53.45
69245;BME280;56357;52.304;4.870;2023-03-25T09:57:03;100300.16;;;19.40;53.20
69245;BME280;56357;52.304;4.870;2023-03-25T09:59:50;100321.47;;;19.41;52.99
69245;BME280;56357;52.304;4.870;2023-03-25T10:10:45;100331.41;;;19.52;53.02
69245;BME280;56357;52.304;4.870;2023-03-25T10:13:30;100337.88;;;19.53;53.25
69245;BME280;56357;52.304;4.870;2023-03-25T10:19:16;100341.56;;;19.48;52.96
69245;BME280;56357;52.304;4.870;2023-03-25T10:21:57;100328.81;;;19.37;52.90
69245;BME280;56357;52.304;4.870;2023-03-25T10:24:33;100346.97;;;19.45;52.96
69245;BME280;56357;52.304;4.870;2023-03-25T10:27:17;100343.84;;;19.46;52.80
69245;BME280;56357;52.304;4.870;2023-03-25T10:30:12;100335.22;;;19.61;53.16
69245;BME280;56357;52.304;4.870;2023-03-25T10:32:45;100341.22;;;19.73;53.10
69245;BME280;56357;52.304;4.870;2023-03-25T10:35:19;100342.81;;;19.79;52.97
69245;BME280;56357;52.304;4.870;2023-03-25T10:37:48;100345.63;;;19.79;53.04
69245;BME280;56357;52.304;4.870;2023-03-25T10:40:29;100343.44;;;19.76;53.03
69245;BME280;56357;52.304;4.870;2023-03-25T10:43:17;100349.19;;;19.85;52.89
69245;BME280;56357;52.304;4.870;2023-03-25T10:45:47;100347.84;;;19.82;52.85
69245;BME280;56357;52.304;4.870;2023-03-25T10:48:25;100368.09;;;19.79;52.94
69245;BME280;56357;52.304;4.870;2023-03-25T10:51:08;100348.19;;;19.76;52.61
69245;BME280;56357;52.304;4.870;2023-03-25T10:53:36;100348.66;;;19.83;52.83
69245;BME280;56357;52.304;4.870;2023-03-25T10:56:18;100336.50;;;20.25;53.24
69245;BME280;56357;52.304;4.870;2023-03-25T10:58:50;100363.28;;;20.36;53.22
69245;BME280;56357;52.304;4.870;2023-03-25T11:01:19;100363.59;;;20.16;53.38
69245;BME280;56357;52.304;4.870;2023-03-25T11:03:50;100358.91;;;20.11;52.76
69245;BME280;56357;52.304;4.870;2023-03-25T11:06:27;100348.78;;;20.10;53.18
69245;BME280;56357;52.304;4.870;2023-03-25T11:11:34;100377.50;;;20.07;53.00
69245;BME280;56357;52.304;4.870;2023-03-25T11:14:02;100363.03;;;20.14;53.26
69245;BME280;56357;52.304;4.870;2023-03-25T11:16:39;100412.69;;;20.04;53.72
69245;BME280;56357;52.304;4.870;2023-03-25T11:19:06;100369.75;;;19.99;52.49
69245;BME280;56357;52.304;4.870;2023-03-25T11:21:38;100369.44;;;20.00;52.07
69245;BME280;56357;52.304;4.870;2023-03-25T11:24:05;100382.06;;;20.03;52.19
69245;BME280;56357;52.304;4.870;2023-03-25T11:26:37;100369.88;;;20.07;52.75
69245;BME280;56357;52.304;4.870;2023-03-25T11:29:12;100375.50;;;20.07;52.82
69245;BME280;56357;52.304;4.870;2023-03-25T11:31:41;100373.31;;;20.04;52.85
69245;BME280;56357;52.304;4.870;2023-03-25T11:39:25;100381.91;;;20.13;52.95
69245;BME280;56357;52.304;4.870;2023-03-25T11:41:52;100391.16;;;20.14;52.76
69245;BME280;56357;52.304;4.870;2023-03-25T11:44:27;100384.19;;;20.11;52.78
69245;BME280;56357;52.304;4.870;2023-03-25T11:46:57;100403.63;;;20.07;53.50
69245;BME280;56357;52.304;4.870;2023-03-25T11:49:25;100396.56;;;20.10;53.58
69245;BME280;56357;52.304;4.870;2023-03-25T11:51:58;100397.09;;;20.12;53.25
69245;BME280;56357;52.304;4.870;2023-03-25T11:54:26;100390.28;;;20.18;53.08
69245;BME280;56357;52.304;4.870;2023-03-25T11:56:54;100393.97;;;20.14;52.71
69245;BME280;56357;52.304;4.870;2023-03-25T11:59:35;100386.53;;;20.04;53.43
69245;BME280;56357;52.304;4.870;2023-03-25T12:02:17;100384.72;;;19.94;53.14
69245;BME280;56357;52.304;4.870;2023-03-25T12:04:55;100374.31;;;19.95;52.54
69245;BME280;56357;52.304;4.870;2023-03-25T12:07:22;100395.81;;;20.04;53.33
69245;BME280;56357;52.304;4.870;2023-03-25T12:09:57;100386.63;;;19.99;52.71
69245;BME280;56357;52.304;4.870;2023-03-25T12:12:32;100388.69;;;19.93;52.46
69245;BME280;56357;52.304;4.870;2023-03-25T12:15:18;100377.56;;;20.02;53.31
69245;BME280;56357;52.304;4.870;2023-03-25T12:31:22;100384.13;;;19.97;51.68
69245;BME280;56357;52.304;4.870;2023-03-25T12:36:29;100405.25;;;19.95;52.50
69245;BME280;56357;52.304;4.870;2023-03-25T12:41:28;100393.63;;;20.01;52.62
69245;BME280;56357;52.304;4.870;2023-03-25T12:47:26;100388.34;;;20.14;52.43
69245;BME280;56357;52.304;4.870;2023-03-25T12:55:24;100397.00;;;20.17;52.52
69245;BME280;56357;52.304;4.870;2023-03-25T13:06:22;100396.88;;;20.08;52.84
69245;BME280;56357;52.304;4.870;2023-03-25T13:09:23;100399.56;;;20.19;52.37
69245;BME280;56357;52.304;4.870;2023-03-25T13:12:02;100407.59;;;20.25;52.06
69245;BME280;56357;52.304;4.870;2023-03-25T13:14:43;100427.50;;;20.29;52.33
69245;BME280;56357;52.304;4.870;2023-03-25T13:17:53;100421.38;;;20.27;52.55
69245;BME280;56357;52.304;4.870;2023-03-25T13:20:24;100425.34;;;20.02;52.62
69245;BME280;56357;52.304;4.870;2023-03-25T13:22:56;100428.63;;;19.90;53.35
69245;BME280;56357;52.304;4.870;2023-03-25T13:25:43;100429.59;;;19.81;52.92
69245;BME280;56357;52.304;4.870;2023-03-25T13:28:16;100429.09;;;19.97;52.92
69245;BME280;56357;52.304;4.870;2023-03-25T13:30:48;100422.84;;;20.00;52.88
69245;BME280;56357;52.304;4.870;2023-03-25T13:33:22;100432.06;;;20.06;52.71
69245;BME280;56357;52.304;4.870;2023-03-25T13:36:04;100433.88;;;19.97;52.73
69245;BME280;56357;52.304;4.870;2023-03-25T13:38:45;100422.81;;;20.05;53.49
69245;BME280;56357;52.304;4.870;2023-03-25T13:41:18;100428.88;;;20.13;52.78
69245;BME280;56357;52.304;4.870;2023-03-25T13:46:42;100452.47;;;20.12;52.98
69245;BME280;56357;52.304;4.870;2023-03-25T13:51:38;100426.28;;;20.16;53.07
69245;BME280;56357;52.304;4.870;2023-03-25T13:54:15;100433.56;;;20.17;52.82
69245;BME280;56357;52.304;4.870;2023-03-25T14:08:12;100446.63;;;20.08;53.00
69245;BME280;56357;52.304;4.870;2023-03-25T14:10:52;100453.09;;;20.08;53.16
69245;BME280;56357;52.304;4.870;2023-03-25T14:13:26;100464.66;;;20.07;53.19
69245;BME280;56357;52.304;4.870;2023-03-25T14:16:00;100468.69;;;20.01;53.23
69245;BME280;56357;52.304;4.870;2023-03-25T14:18:28;100462.22;;;20.00;52.75
69245;BME280;56357;52.304;4.870;2023-03-25T14:20:57;100476.88;;;19.97;53.05
69245;BME280;56357;52.304;4.870;2023-03-25T14:23:29;100484.25;;;19.93;53.17
69245;BME280;56357;52.304;4.870;2023-03-25T14:25:58;100488.50;;;19.91;53.15
69245;BME280;56357;52.304;4.870;2023-03-25T14:28:40;100493.44;;;19.80;53.55
69245;BME280;56357;52.304;4.870;2023-03-25T14:44:46;100485.50;;;19.40;55.06
69245;BME280;56357;52.304;4.870;2023-03-25T14:52:54;100576.69;;;19.48;55.02
69245;BME280;56357;52.304;4.870;2023-03-25T14:55:39;100583.19;;;19.43;54.81
69245;BME280;56357;52.304;4.870;2023-03-25T14:58:22;100579.28;;;19.39;55.17
69245;BME280;56357;52.304;4.870;2023-03-25T15:00:53;100556.72;;;19.49;54.66
69245;BME280;56357;52.304;4.870;2023-03-25T15:03:30;100562.09;;;19.46;54.97
69245;BME280;56357;52.304;4.870;2023-03-25T15:05:59;100581.78;;;19.41;55.10
69245;BME280;56357;52.304;4.870;2023-03-25T15:08:34;100590.81;;;19.38;54.66
69245;BME280;56357;52.304;4.870;2023-03-25T15:11:07;100586.00;;;19.43;54.72
69245;BME280;56357;52.304;4.870;2023-03-25T15:13:46;100576.47;;;19.39;54.54
69245;BME280;56357;52.304;4.870;2023-03-25T15:19:04;100579.59;;;19.38;54.54
69245;BME280;56357;52.304;4.870;2023-03-25T15:22:03;100575.94;;;19.37;54.56